createdAt,value
2022-08-17T00:00:07.346Z,20.33
2022-08-17T00:02:59.011Z,20.29
2022-08-17T00:05:26.324Z,20.26
2022-08-17T00:07:53.055Z,20.24
2022-08-17T00:10:20.403Z,20.20
2022-08-17T00:12:47.240Z,20.17
2022-08-17T00:15:15.128Z,20.13
2022-08-17T00:17:45.551Z,20.11
2022-08-17T00:20:13.407Z,20.09
2022-08-17T00:22:41.801Z,20.06
2022-08-17T00:25:13.037Z,20.03
2022-08-17T00:27:40.400Z,20.00
2022-08-17T00:30:10.653Z,19.96
2022-08-17T00:33:14.350Z,19.93
2022-08-17T00:35:31.241Z,19.87
2022-08-17T00:37:58.574Z,19.83
2022-08-17T00:40:25.374Z,19.79
2022-08-17T00:42:53.363Z,19.76
2022-08-17T00:45:20.953Z,19.71
2022-08-17T00:47:47.794Z,19.68
2022-08-17T00:50:18.167Z,19.64
2022-08-17T00:52:52.569Z,19.61
2022-08-17T00:55:21.053Z,19.57
2022-08-17T00:57:55.207Z,19.55
2022-08-17T01:00:29.174Z,19.52
2022-08-17T01:03:02.368Z,19.50
2022-08-17T01:05:31.713Z,19.47
2022-08-17T01:08:00.293Z,19.43
2022-08-17T01:10:58.797Z,19.38
2022-08-17T01:13:36.793Z,19.32
2022-08-17T01:16:28.337Z,19.28
2022-08-17T01:19:02.105Z,19.24
2022-08-17T01:21:47.545Z,19.22
2022-08-17T01:24:14.955Z,19.20
2022-08-17T01:26:44.956Z,19.17
2022-08-17T01:29:12.959Z,19.15
2022-08-17T01:31:45.216Z,19.13
2022-08-17T01:34:14.725Z,19.10
2022-08-17T01:36:46.056Z,19.06
2022-08-17T01:39:23.554Z,19.03
2022-08-17T01:41:53.653Z,19.00
2022-08-17T01:44:21.852Z,18.97
2022-08-17T01:46:48.831Z,18.95
2022-08-17T01:49:15.845Z,18.93
2022-08-17T01:51:42.898Z,18.90
2022-08-17T01:54:13.954Z,18.87
2022-08-17T01:56:44.519Z,18.86
2022-08-17T01:59:15.044Z,18.84
2022-08-17T02:01:43.531Z,18.83
2022-08-17T02:04:11.498Z,18.80
2022-08-17T02:06:44.903Z,18.79
2022-08-17T02:09:25.291Z,18.78
2022-08-17T02:11:57.112Z,18.76
2022-08-17T02:14:25.727Z,18.73
2022-08-17T02:16:53.445Z,18.72
2022-08-17T02:19:23.069Z,18.71
2022-08-17T02:21:51.845Z,18.71
2022-08-17T02:24:58.356Z,18.71
2022-08-17T02:27:15.055Z,18.71
2022-08-17T02:29:42.067Z,18.71
2022-08-17T02:32:20.926Z,18.68
2022-08-17T02:34:55.022Z,18.68
2022-08-17T02:37:22.531Z,18.66
2022-08-17T02:39:49.175Z,18.65
2022-08-17T02:42:16.105Z,18.64
2022-08-17T02:44:43.261Z,18.62
2022-08-17T02:47:11.148Z,18.61
2022-08-17T02:49:40.063Z,18.60
2022-08-17T02:52:08.166Z,18.58
2022-08-17T02:54:40.154Z,18.57
2022-08-17T02:57:10.581Z,18.56
2022-08-17T02:59:39.565Z,18.54
2022-08-17T03:02:08.706Z,18.52
2022-08-17T03:04:35.725Z,18.48
2022-08-17T03:07:04.248Z,18.45
2022-08-17T03:09:31.391Z,18.41
2022-08-17T03:12:06.386Z,18.39
2022-08-17T03:14:35.995Z,18.36
2022-08-17T03:17:05.706Z,18.32
2022-08-17T03:19:32.703Z,18.28
2022-08-17T03:21:59.680Z,18.23
2022-08-17T03:24:46.582Z,18.18
2022-08-17T03:27:16.804Z,18.14
2022-08-17T03:29:43.862Z,18.12
2022-08-17T03:32:15.825Z,18.07
2022-08-17T03:34:43.109Z,18.04
2022-08-17T03:37:10.119Z,17.99
2022-08-17T03:39:37.049Z,17.94
2022-08-17T03:42:09.047Z,17.89
2022-08-17T03:44:58.192Z,17.85
2022-08-17T03:47:43.943Z,17.83
2022-08-17T03:50:31.360Z,17.80
2022-08-17T03:53:17.579Z,17.78
2022-08-17T03:56:03.152Z,17.76
2022-08-17T03:58:30.193Z,17.74
2022-08-17T04:00:59.117Z,17.73
2022-08-17T04:03:26.090Z,17.71
2022-08-17T04:05:53.185Z,17.70
2022-08-17T04:08:20.896Z,17.69
2022-08-17T04:10:47.957Z,17.66
2022-08-17T04:13:15.060Z,17.65
2022-08-17T04:15:51.259Z,17.65
2022-08-17T04:18:18.557Z,17.66
2022-08-17T04:20:46.940Z,17.67
2022-08-17T04:23:17.057Z,17.70
2022-08-17T04:25:48.223Z,17.70
2022-08-17T04:28:16.633Z,17.71
2022-08-17T04:30:45.090Z,17.71
2022-08-17T04:33:15.581Z,17.74
2022-08-17T04:35:52.068Z,17.77
2022-08-17T04:38:21.872Z,17.81
2022-08-17T04:41:07.944Z,17.85
2022-08-17T04:43:36.145Z,17.90
2022-08-17T04:46:08.465Z,17.94
2022-08-17T04:48:42.623Z,17.99
2022-08-17T04:51:15.752Z,18.03
2022-08-17T04:53:45.505Z,18.07
2022-08-17T04:56:21.841Z,18.13
2022-08-17T04:58:50.825Z,18.17
2022-08-17T05:01:23.062Z,18.23
2022-08-17T05:03:50.324Z,18.30
2022-08-17T05:06:17.718Z,18.39
2022-08-17T05:08:44.981Z,18.44
2022-08-17T05:11:12.495Z,18.51
2022-08-17T05:13:39.222Z,18.61
2022-08-17T05:16:09.164Z,18.69
2022-08-17T05:18:37.249Z,18.78
2022-08-17T05:21:06.509Z,18.90
2022-08-17T05:23:42.240Z,19.01
2022-08-17T05:26:19.883Z,19.10
2022-08-17T05:28:52.680Z,19.17
2022-08-17T05:31:21.594Z,19.25
2022-08-17T05:33:49.529Z,19.33
2022-08-17T05:36:42.199Z,19.46
2022-08-17T05:39:04.554Z,19.63
2022-08-17T05:41:31.458Z,19.78
2022-08-17T05:43:58.558Z,19.88
2022-08-17T05:46:28.738Z,19.96
2022-08-17T05:49:10.959Z,20.06
2022-08-17T05:51:53.152Z,20.21
2022-08-17T05:54:50.815Z,20.35
2022-08-17T05:57:36.134Z,20.49
2022-08-17T06:00:15.763Z,20.61
2022-08-17T06:03:07.514Z,20.65
2022-08-17T06:05:58.399Z,20.73
2022-08-17T06:08:45.583Z,20.84
2022-08-17T06:11:37.300Z,20.97
2022-08-17T06:14:22.155Z,21.10
2022-08-17T06:16:55.470Z,21.18
2022-08-17T06:19:47.757Z,21.27
2022-08-17T06:22:19.239Z,21.37
2022-08-17T06:24:57.984Z,21.44
2022-08-17T06:27:48.718Z,21.56
2022-08-17T06:30:58.427Z,21.73
2022-08-17T06:33:34.989Z,21.96
2022-08-17T06:36:10.984Z,22.15
2022-08-17T06:38:55.678Z,22.27
2022-08-17T06:41:50.571Z,22.37
2022-08-17T06:44:49.660Z,22.43
2022-08-17T06:47:29.370Z,22.51
2022-08-17T06:50:03.508Z,22.56
2022-08-17T06:52:47.300Z,22.66
2022-08-17T06:55:26.400Z,22.81
2022-08-17T06:57:59.919Z,22.97
2022-08-17T07:00:33.641Z,23.09
2022-08-17T07:03:10.451Z,23.23
2022-08-17T07:05:53.767Z,23.38
2022-08-17T07:09:01.249Z,23.55
2022-08-17T07:11:38.090Z,23.67
2022-08-17T07:14:35.526Z,23.80
2022-08-17T07:17:09.054Z,23.96
2022-08-17T07:19:40.602Z,24.09
2022-08-17T07:22:57.620Z,24.17
2022-08-17T07:25:28.047Z,24.33
2022-08-17T07:27:59.749Z,24.49
2022-08-17T07:30:51.312Z,24.53
2022-08-17T07:33:28.208Z,24.45
2022-08-17T07:35:59.383Z,24.45
2022-08-17T07:38:28.631Z,24.45
2022-08-17T07:41:02.222Z,24.54
2022-08-17T07:43:41.614Z,24.63
2022-08-17T07:49:11.147Z,24.87
2022-08-17T07:51:45.562Z,25.04
2022-08-17T07:54:15.511Z,25.24
2022-08-17T07:56:47.314Z,25.48
2022-08-17T07:59:27.160Z,25.66
2022-08-17T08:01:58.354Z,25.82
2022-08-17T08:04:49.938Z,26.02
2022-08-17T08:07:27.321Z,26.23
2022-08-17T08:10:14.048Z,26.37
2022-08-17T08:13:12.247Z,26.57
2022-08-17T08:15:53.569Z,26.71
2022-08-17T08:18:38.678Z,26.73
2022-08-17T08:21:35.909Z,26.76
2022-08-17T08:24:40.524Z,26.82
2022-08-17T08:27:34.038Z,26.96
2022-08-17T08:30:07.365Z,27.15
2022-08-17T08:32:59.255Z,27.34
2022-08-17T08:35:54.315Z,27.53
2022-08-17T08:38:56.719Z,27.59
2022-08-17T08:41:51.472Z,27.66
2022-08-17T08:45:03.953Z,27.83
2022-08-17T08:47:45.080Z,28.13
2022-08-17T08:50:37.745Z,28.39
2022-08-17T08:53:24.409Z,28.67
2022-08-17T08:56:23.414Z,29.03
2022-08-17T08:59:02.296Z,29.39
2022-08-17T09:01:55.057Z,29.61
2022-08-17T09:05:02.764Z,29.72
2022-08-17T09:07:36.736Z,29.71
2022-08-17T09:10:13.810Z,29.87
2022-08-17T09:12:53.719Z,29.93
2022-08-17T09:15:27.413Z,29.97
2022-08-17T09:18:59.955Z,30.10
2022-08-17T09:21:21.582Z,30.14
2022-08-17T09:24:00.090Z,30.20
2022-08-17T09:26:35.102Z,30.27
2022-08-17T09:29:08.640Z,30.31
2022-08-17T09:31:48.783Z,30.34
2022-08-17T09:34:21.170Z,30.50
2022-08-17T09:36:58.777Z,30.63
2022-08-17T09:39:39.071Z,30.76
2022-08-17T09:42:14.897Z,30.86
2022-08-17T09:44:51.868Z,30.96
2022-08-17T09:47:45.931Z,31.13
2022-08-17T09:50:20.163Z,31.29
2022-08-17T09:53:08.254Z,31.47
2022-08-17T09:56:09.100Z,31.46
2022-08-17T09:58:56.310Z,31.41
2022-08-17T10:01:39.780Z,31.44
2022-08-17T10:04:20.413Z,31.53
2022-08-17T10:07:12.263Z,31.67
2022-08-17T10:09:45.092Z,31.87
2022-08-17T10:12:38.333Z,32.06
2022-08-17T10:15:22.678Z,32.28
2022-08-17T10:18:07.609Z,32.40
2022-08-17T10:20:46.569Z,32.44
2022-08-17T10:23:46.711Z,32.58
2022-08-17T10:26:19.284Z,32.73
2022-08-17T10:28:52.649Z,32.87
2022-08-17T10:31:34.866Z,33.08
2022-08-17T10:34:29.429Z,33.32
2022-08-17T10:37:19.627Z,33.51
2022-08-17T10:40:09.992Z,33.56
2022-08-17T10:42:51.884Z,33.67
2022-08-17T10:45:40.394Z,33.88
2022-08-17T10:48:07.593Z,34.06
2022-08-17T10:50:55.479Z,34.25
2022-08-17T10:53:40.948Z,34.47
2022-08-17T10:56:17.764Z,34.74
2022-08-17T10:58:53.983Z,34.89
2022-08-17T11:01:33.326Z,34.86
2022-08-17T11:04:06.028Z,34.78
2022-08-17T11:07:02.195Z,34.75
2022-08-17T11:10:16.623Z,34.74
2022-08-17T11:12:57.351Z,34.70
2022-08-17T11:15:39.516Z,34.61
2022-08-17T11:18:44.319Z,34.49
2022-08-17T11:21:29.948Z,34.47
2022-08-17T11:24:06.071Z,34.40
2022-08-17T11:26:36.099Z,34.41
2022-08-17T11:29:09.579Z,34.55
2022-08-17T11:31:39.899Z,34.67
2022-08-17T11:34:13.506Z,34.81
2022-08-17T11:36:51.933Z,34.90
2022-08-17T11:39:44.508Z,34.96
2022-08-17T11:42:48.992Z,34.92
2022-08-17T11:45:38.584Z,34.99
2022-08-17T11:48:46.370Z,35.06
2022-08-17T11:51:46.386Z,35.16
2022-08-17T11:54:33.205Z,35.10
2022-08-17T11:57:21.643Z,34.99
2022-08-17T12:00:02.044Z,34.95
2022-08-17T12:02:31.427Z,34.92
2022-08-17T12:05:04.719Z,34.85
2022-08-17T12:07:49.097Z,34.92
2022-08-17T12:10:22.734Z,35.25
2022-08-17T12:12:54.045Z,35.49
2022-08-17T12:15:35.432Z,35.94
2022-08-17T12:18:02.381Z,36.69
2022-08-17T12:20:28.954Z,37.34
2022-08-17T12:23:34.094Z,37.97
2022-08-17T12:26:11.856Z,38.55
2022-08-17T12:28:44.229Z,38.95
2022-08-17T12:31:20.835Z,39.16
2022-08-17T12:33:49.922Z,39.64
2022-08-17T12:36:22.242Z,40.23
2022-08-17T12:38:57.225Z,40.77
2022-08-17T12:41:39.104Z,40.69
2022-08-17T12:44:09.521Z,40.62
2022-08-17T12:46:50.463Z,40.45
2022-08-17T12:49:23.036Z,40.12
2022-08-17T12:51:51.853Z,39.71
2022-08-17T12:54:50.378Z,39.32
2022-08-17T12:57:34.582Z,38.84
2022-08-17T13:00:20.686Z,38.43
2022-08-17T13:02:54.703Z,38.06
2022-08-17T13:05:27.651Z,38.06
2022-08-17T13:07:59.222Z,38.10
2022-08-17T13:10:34.967Z,38.06
2022-08-17T13:13:21.515Z,38.24
2022-08-17T13:15:55.283Z,38.03
2022-08-17T13:18:39.897Z,37.95
2022-08-17T13:21:18.935Z,38.65
2022-08-17T13:24:11.317Z,39.81
2022-08-17T13:26:54.506Z,40.12
2022-08-17T13:29:53.101Z,40.57
2022-08-17T13:32:31.017Z,41.46
2022-08-17T13:35:14.951Z,41.59
2022-08-17T13:37:57.818Z,41.57
2022-08-17T13:40:53.089Z,41.00
2022-08-17T13:43:49.816Z,40.74
2022-08-17T13:46:22.410Z,40.82
2022-08-17T13:49:21.011Z,40.40
2022-08-17T13:51:51.508Z,39.91
2022-08-17T13:54:30.245Z,39.54
2022-08-17T13:57:03.057Z,39.00
2022-08-17T13:59:53.678Z,38.39
2022-08-17T14:02:25.903Z,37.86
2022-08-17T14:04:55.594Z,37.33
2022-08-17T14:07:29.113Z,36.87
2022-08-17T14:10:01.086Z,36.44
2022-08-17T14:12:32.613Z,36.08
2022-08-17T14:14:59.825Z,35.64
2022-08-17T14:17:29.082Z,35.27
2022-08-17T14:19:55.896Z,34.90
2022-08-17T14:22:32.406Z,34.58
2022-08-17T14:25:01.788Z,34.24
2022-08-17T14:27:32.074Z,33.97
2022-08-17T14:29:59.272Z,33.72
2022-08-17T14:32:31.951Z,33.40
2022-08-17T14:34:59.941Z,33.18
2022-08-17T14:37:28.347Z,32.99
2022-08-17T14:39:57.073Z,32.82
2022-08-17T14:42:26.342Z,32.67
2022-08-17T14:44:55.522Z,32.53
2022-08-17T14:47:25.087Z,32.38
2022-08-17T14:49:53.032Z,32.16
2022-08-17T14:52:22.086Z,31.96
2022-08-17T14:54:53.316Z,31.79
2022-08-17T14:57:24.580Z,31.62
2022-08-17T14:59:55.437Z,31.31
2022-08-17T15:02:29.648Z,30.78
2022-08-17T15:05:04.336Z,30.31
2022-08-17T15:07:34.049Z,29.93
2022-08-17T15:10:02.142Z,29.60
2022-08-17T15:12:33.282Z,29.34
2022-08-17T15:15:05.395Z,29.06
2022-08-17T15:17:44.929Z,28.77
2022-08-17T15:20:20.865Z,28.41
2022-08-17T15:22:55.523Z,28.05
2022-08-17T15:25:24.212Z,27.78
2022-08-17T15:27:52.123Z,27.66
2022-08-17T15:30:19.892Z,27.62
2022-08-17T15:32:54.030Z,27.66
2022-08-17T15:35:27.338Z,27.66
2022-08-17T15:38:11.567Z,27.60
2022-08-17T15:40:43.117Z,27.43
2022-08-17T15:43:27.305Z,27.32
2022-08-17T15:46:22.484Z,27.30
2022-08-17T15:48:51.952Z,27.41
2022-08-17T15:51:26.322Z,27.57
2022-08-17T15:54:04.247Z,27.85
2022-08-17T15:56:47.463Z,28.28
2022-08-17T15:59:14.265Z,28.68
2022-08-17T16:03:12.972Z,29.19
2022-08-17T16:04:31.035Z,29.84
2022-08-17T16:06:59.819Z,30.56
2022-08-17T16:09:27.807Z,31.37
2022-08-17T16:11:56.062Z,32.38
2022-08-17T16:14:33.553Z,33.34
2022-08-17T16:17:03.044Z,33.68
2022-08-17T16:19:29.874Z,33.60
2022-08-17T16:21:56.932Z,33.33
2022-08-17T16:24:23.488Z,33.03
2022-08-17T16:26:50.278Z,32.76
2022-08-17T16:29:17.017Z,32.44
2022-08-17T16:31:43.687Z,32.10
2022-08-17T16:34:17.766Z,31.81
2022-08-17T16:36:55.221Z,31.49
2022-08-17T16:39:28.973Z,31.20
2022-08-17T16:41:56.174Z,31.02
2022-08-17T16:44:23.971Z,30.83
2022-08-17T16:46:50.749Z,30.60
2022-08-17T16:49:25.765Z,30.41
2022-08-17T16:52:06.074Z,30.28
2022-08-17T16:54:35.268Z,30.46
2022-08-17T16:57:04.878Z,31.00
2022-08-17T16:59:41.018Z,31.71
2022-08-17T17:02:17.294Z,32.07
2022-08-17T17:04:57.671Z,32.11
2022-08-17T17:07:36.719Z,32.58
2022-08-17T17:10:12.695Z,33.03
2022-08-17T17:13:03.660Z,33.41
2022-08-17T17:15:37.202Z,33.24
2022-08-17T17:18:07.235Z,33.05
2022-08-17T17:20:47.737Z,32.84
2022-08-17T17:23:41.140Z,32.69
2022-08-17T17:26:28.875Z,32.43
2022-08-17T17:29:14.677Z,32.33
2022-08-17T17:32:10.020Z,32.46
2022-08-17T17:34:39.720Z,32.63
2022-08-17T17:37:11.923Z,32.77
2022-08-17T17:39:46.470Z,32.79
2022-08-17T17:42:20.575Z,32.77
2022-08-17T17:45:06.787Z,32.72
2022-08-17T17:47:34.390Z,32.59
2022-08-17T17:50:02.588Z,32.26
2022-08-17T17:53:02.206Z,31.85
2022-08-17T17:55:55.228Z,31.28
2022-08-17T17:58:29.699Z,30.75
2022-08-17T18:01:17.283Z,30.34
2022-08-17T18:04:02.851Z,29.90
2022-08-17T18:06:46.915Z,29.48
2022-08-17T18:09:39.721Z,29.10
2022-08-17T18:12:29.330Z,28.73
2022-08-17T18:15:18.619Z,28.38
2022-08-17T18:18:37.766Z,28.03
2022-08-17T18:21:16.849Z,27.69
2022-08-17T18:24:04.952Z,27.45
2022-08-17T18:26:43.797Z,27.23
2022-08-17T18:29:37.508Z,27.04
2022-08-17T18:32:14.284Z,26.84
2022-08-17T18:34:49.701Z,26.65
2022-08-17T18:37:45.850Z,26.47
2022-08-17T18:40:22.080Z,26.27
2022-08-17T18:42:48.942Z,26.07
2022-08-17T18:45:30.710Z,25.91
2022-08-17T18:47:57.582Z,25.76
2022-08-17T18:50:41.227Z,25.61
2022-08-17T18:53:33.520Z,25.46
2022-08-17T18:56:23.088Z,25.31
2022-08-17T18:59:19.852Z,25.17
2022-08-17T19:05:26.499Z,24.88
2022-08-17T19:08:07.326Z,24.77
2022-08-17T19:10:46.478Z,24.70
2022-08-17T19:13:23.965Z,24.60
2022-08-17T19:16:18.840Z,24.50
2022-08-17T19:18:57.974Z,24.36
2022-08-17T19:21:33.592Z,24.21
2022-08-17T19:24:13.907Z,24.06
2022-08-17T19:26:54.159Z,23.89
2022-08-17T19:29:34.216Z,23.73
2022-08-17T19:32:01.733Z,23.59
2022-08-17T19:34:34.555Z,23.49
2022-08-17T19:37:21.132Z,23.41
2022-08-17T19:40:08.620Z,23.30
2022-08-17T19:42:50.341Z,23.16
2022-08-17T19:45:45.157Z,23.05
2022-08-17T19:48:38.120Z,22.94
2022-08-17T19:51:34.290Z,22.85
2022-08-17T19:54:06.423Z,22.78
2022-08-17T19:57:05.616Z,22.71
2022-08-17T19:59:53.854Z,22.63
2022-08-17T20:02:39.037Z,22.52
2022-08-17T20:05:15.312Z,22.45
2022-08-17T20:07:57.294Z,22.38
2022-08-17T20:10:35.301Z,22.28
2022-08-17T20:13:08.999Z,22.20
2022-08-17T20:15:40.520Z,22.14
2022-08-17T20:18:18.376Z,22.10
2022-08-17T20:20:50.990Z,22.04
2022-08-17T20:23:45.472Z,22.01
2022-08-17T20:26:44.422Z,21.96
2022-08-17T20:30:01.726Z,21.91
2022-08-17T20:32:33.710Z,21.88
2022-08-17T20:35:21.342Z,21.83
2022-08-17T20:38:02.681Z,21.75
2022-08-17T20:40:54.462Z,21.68
2022-08-17T20:43:43.611Z,21.62
2022-08-17T20:46:32.067Z,21.59
2022-08-17T20:49:17.673Z,21.55
2022-08-17T20:52:02.864Z,21.53
2022-08-17T20:54:41.945Z,21.49
2022-08-17T20:57:13.756Z,21.46
2022-08-17T20:59:44.158Z,21.42
2022-08-17T21:02:20.667Z,21.37
2022-08-17T21:04:50.730Z,21.31
2022-08-17T21:07:53.663Z,21.26
2022-08-17T21:10:26.332Z,21.19
2022-08-17T21:13:02.028Z,21.14
2022-08-17T21:16:00.044Z,21.10
2022-08-17T21:19:04.872Z,21.04
2022-08-17T21:21:59.522Z,20.98
2022-08-17T21:24:38.428Z,20.93
2022-08-17T21:27:05.814Z,20.90
2022-08-17T21:29:34.010Z,20.87
2022-08-17T21:32:05.490Z,20.85
2022-08-17T21:34:44.246Z,20.82
2022-08-17T21:37:20.244Z,20.78
2022-08-17T21:39:55.755Z,20.74
2022-08-17T21:42:26.631Z,20.70
2022-08-17T21:44:58.021Z,20.66
2022-08-17T21:47:28.080Z,20.60
2022-08-17T21:49:56.514Z,20.56
2022-08-17T21:52:27.092Z,20.51
2022-08-17T21:54:58.406Z,20.46
2022-08-17T21:57:28.372Z,20.43
2022-08-17T21:59:58.638Z,20.39
2022-08-17T22:02:35.225Z,20.35
2022-08-17T22:05:03.022Z,20.33
2022-08-17T22:07:40.159Z,20.29
2022-08-17T22:10:26.580Z,20.25
2022-08-17T22:13:16.735Z,20.21
2022-08-17T22:15:47.622Z,20.16
2022-08-17T22:18:26.859Z,20.11
2022-08-17T22:20:57.150Z,20.07
2022-08-17T22:23:49.852Z,20.02
2022-08-17T22:26:18.565Z,19.96
2022-08-17T22:28:50.809Z,19.93
2022-08-17T22:31:20.834Z,19.91
2022-08-17T22:34:04.475Z,19.91
2022-08-17T22:36:33.657Z,19.90
2022-08-17T22:39:04.693Z,19.89
2022-08-17T22:41:41.202Z,19.89
2022-08-17T22:44:23.648Z,19.88
2022-08-17T22:46:55.617Z,19.87
2022-08-17T22:49:29.240Z,19.86
2022-08-17T22:52:10.016Z,19.84
2022-08-17T22:54:55.205Z,19.82
2022-08-17T22:57:42.120Z,19.80
2022-08-17T23:00:39.468Z,19.77
2022-08-17T23:03:27.033Z,19.72
2022-08-17T23:06:11.313Z,19.67
2022-08-17T23:08:50.152Z,19.61
2022-08-17T23:11:17.141Z,19.56
2022-08-17T23:13:44.371Z,19.51
2022-08-17T23:16:11.545Z,19.44
2022-08-17T23:18:38.915Z,19.33
2022-08-17T23:21:09.092Z,19.27
2022-08-17T23:23:40.462Z,19.21
2022-08-17T23:26:11.355Z,19.17
2022-08-17T23:28:40.963Z,19.12
2022-08-17T23:31:16.750Z,19.08
2022-08-17T23:33:43.690Z,19.06
2022-08-17T23:36:15.353Z,19.04
2022-08-17T23:38:46.653Z,19.02
2022-08-17T23:41:20.420Z,18.99
2022-08-17T23:43:50.570Z,18.97
2022-08-17T23:46:18.051Z,18.95
2022-08-17T23:48:44.803Z,18.93
2022-08-17T23:51:18.984Z,18.92
2022-08-17T23:53:50.088Z,18.91
2022-08-17T23:56:23.561Z,18.89
2022-08-17T23:58:50.390Z,18.88
